sensor_id;sensor_type;location;lat;lon;timestamp;pressure;altitude;pressure_sealevel;temperature;humidity
706;BME280;21234;48.690;9.016;2023-01-30T00:00:33;96696.44;;;-2.60;92.01
706;BME280;21234;48.690;9.016;2023-01-30T00:03:00;96697.88;;;-2.66;91.73
706;BME280;21234;48.690;9.016;2023-01-30T00:05:27;96698.59;;;-2.56;92.13
706;BME280;21234;48.690;9.016;2023-01-30T00:07:54;96695.94;;;-2.56;91.62
706;BME280;21234;48.690;9.016;2023-01-30T00:10:20;96691.59;;;-2.57;91.53
706;BME280;21234;48.690;9.016;2023-01-30T00:12:48;96687.78;;;-2.54;91.52
706;BME280;21234;48.690;9.016;2023-01-30T00:15:15;96684.97;;;-2.53;91.37
706;BME280;21234;48.690;9.016;2023-01-30T00:17:42;96673.31;;;-2.52;91.43
706;BME280;21234;48.690;9.016;2023-01-30T00:20:09;96664.97;;;-2.57;91.44
706;BME280;21234;48.690;9.016;2023-01-30T00:22:37;96655.69;;;-2.53;91.39
706;BME280;21234;48.690;9.016;2023-01-30T00:25:04;96645.50;;;-2.57;91.27
706;BME280;21234;48.690;9.016;2023-01-30T00:27:31;96644.50;;;-2.56;91.72
706;BME280;21234;48.690;9.016;2023-01-30T00:29:59;96650.88;;;-2.49;91.37
706;BME280;21234;48.690;9.016;2023-01-30T00:32:28;96647.50;;;-2.59;91.27
706;BME280;21234;48.690;9.016;2023-01-30T00:34:55;96648.16;;;-2.57;92.03
706;BME280;21234;48.690;9.016;2023-01-30T00:37:22;96655.16;;;-2.56;91.23
706;BME280;21234;48.690;9.016;2023-01-30T00:39:48;96651.03;;;-2.51;90.97
706;BME280;21234;48.690;9.016;2023-01-30T00:42:15;96629.69;;;-2.59;91.03
706;BME280;21234;48.690;9.016;2023-01-30T00:45:01;96629.53;;;-2.57;91.35
706;BME280;21234;48.690;9.016;2023-01-30T00:47:47;96630.06;;;-2.54;91.13
706;BME280;21234;48.690;9.016;2023-01-30T00:50:14;96638.88;;;-2.53;91.17
706;BME280;21234;48.690;9.016;2023-01-30T00:52:41;96638.50;;;-2.58;91.33
706;BME280;21234;48.690;9.016;2023-01-30T00:55:08;96650.16;;;-2.59;91.65
706;BME280;21234;48.690;9.016;2023-01-30T00:57:34;96643.00;;;-2.59;91.06
706;BME280;21234;48.690;9.016;2023-01-30T01:00:04;96658.13;;;-2.59;91.05
706;BME280;21234;48.690;9.016;2023-01-30T01:02:30;96666.41;;;-2.71;91.43
706;BME280;21234;48.690;9.016;2023-01-30T01:04:58;96669.59;;;-2.67;91.73
706;BME280;21234;48.690;9.016;2023-01-30T01:07:24;96671.75;;;-2.71;91.19
706;BME280;21234;48.690;9.016;2023-01-30T01:09:51;96679.00;;;-2.81;92.11
706;BME280;21234;48.690;9.016;2023-01-30T01:12:18;96688.59;;;-2.62;91.44
706;BME280;21234;48.690;9.016;2023-01-30T01:14:45;96698.44;;;-2.54;91.55
706;BME280;21234;48.690;9.016;2023-01-30T01:17:13;96707.94;;;-2.52;91.35
706;BME280;21234;48.690;9.016;2023-01-30T01:19:40;96715.28;;;-2.46;91.19
706;BME280;21234;48.690;9.016;2023-01-30T01:22:06;96716.44;;;-2.48;90.36
706;BME280;21234;48.690;9.016;2023-01-30T01:24:33;96708.28;;;-2.47;90.33
706;BME280;21234;48.690;9.016;2023-01-30T01:27:00;96710.28;;;-2.49;90.34
706;BME280;21234;48.690;9.016;2023-01-30T01:29:27;96722.84;;;-2.67;90.75
706;BME280;21234;48.690;9.016;2023-01-30T01:31:53;96728.09;;;-2.75;91.09
706;BME280;21234;48.690;9.016;2023-01-30T01:34:21;96730.44;;;-2.72;90.89
706;BME280;21234;48.690;9.016;2023-01-30T01:36:48;96729.63;;;-2.73;90.98
706;BME280;21234;48.690;9.016;2023-01-30T01:39:15;96722.31;;;-2.71;90.87
706;BME280;21234;48.690;9.016;2023-01-30T01:41:42;96720.94;;;-2.75;91.33
706;BME280;21234;48.690;9.016;2023-01-30T01:44:08;96725.72;;;-2.60;90.80
706;BME280;21234;48.690;9.016;2023-01-30T01:46:37;96721.03;;;-2.58;90.24
706;BME280;21234;48.690;9.016;2023-01-30T01:49:11;96722.22;;;-2.61;90.37
706;BME280;21234;48.690;9.016;2023-01-30T01:51:42;96711.03;;;-2.64;89.83
706;BME280;21234;48.690;9.016;2023-01-30T01:54:16;96700.50;;;-2.74;90.08
706;BME280;21234;48.690;9.016;2023-01-30T01:56:45;96701.50;;;-2.75;90.30
706;BME280;21234;48.690;9.016;2023-01-30T01:59:18;96709.31;;;-2.74;91.00
706;BME280;21234;48.690;9.016;2023-01-30T02:01:47;96715.72;;;-2.58;90.29
706;BME280;21234;48.690;9.016;2023-01-30T02:04:14;96701.53;;;-2.67;90.43
706;BME280;21234;48.690;9.016;2023-01-30T02:07:03;96707.69;;;-2.66;90.68
706;BME280;21234;48.690;9.016;2023-01-30T02:09:30;96717.50;;;-2.67;90.67
706;BME280;21234;48.690;9.016;2023-01-30T02:11:59;96717.38;;;-2.57;90.26
706;BME280;21234;48.690;9.016;2023-01-30T02:14:30;96708.41;;;-2.56;89.91
706;BME280;21234;48.690;9.016;2023-01-30T02:16:58;96727.78;;;-2.72;90.28
706;BME280;21234;48.690;9.016;2023-01-30T02:19:34;96717.97;;;-2.72;90.67
706;BME280;21234;48.690;9.016;2023-01-30T02:28:44;96713.13;;;-2.76;89.52
706;BME280;21234;48.690;9.016;2023-01-30T02:31:23;96709.34;;;-2.91;90.30
706;BME280;21234;48.690;9.016;2023-01-30T02:34:02;96682.88;;;-3.01;90.90
706;BME280;21234;48.690;9.016;2023-01-30T02:36:40;96680.53;;;-3.04;91.42
706;BME280;21234;48.690;9.016;2023-01-30T02:39:17;96692.75;;;-2.93;91.50
706;BME280;21234;48.690;9.016;2023-01-30T02:41:51;96713.38;;;-2.87;91.60
706;BME280;21234;48.690;9.016;2023-01-30T02:44:25;96725.91;;;-2.80;90.89
706;BME280;21234;48.690;9.016;2023-01-30T02:46:57;96708.72;;;-2.85;90.25
706;BME280;21234;48.690;9.016;2023-01-30T02:49:30;96668.53;;;-3.08;91.43
706;BME280;21234;48.690;9.016;2023-01-30T02:51:58;96656.84;;;-3.15;92.34
706;BME280;21234;48.690;9.016;2023-01-30T02:54:26;96671.81;;;-3.14;92.43
706;BME280;21234;48.690;9.016;2023-01-30T02:56:56;96688.75;;;-3.15;92.42
706;BME280;21234;48.690;9.016;2023-01-30T02:59:26;96682.13;;;-3.11;93.04
706;BME280;21234;48.690;9.016;2023-01-30T03:02:31;96698.09;;;-3.11;92.14
706;BME280;21234;48.690;9.016;2023-01-30T03:05:17;96688.88;;;-2.99;92.04
706;BME280;21234;48.690;9.016;2023-01-30T03:07:49;96693.56;;;-2.93;91.84
706;BME280;21234;48.690;9.016;2023-01-30T03:10:28;96683.41;;;-2.97;91.23
706;BME280;21234;48.690;9.016;2023-01-30T03:13:04;96665.94;;;-2.92;90.97
706;BME280;21234;48.690;9.016;2023-01-30T03:15:38;96652.25;;;-3.05;91.26
706;BME280;21234;48.690;9.016;2023-01-30T03:18:08;96635.88;;;-3.18;91.74
706;BME280;21234;48.690;9.016;2023-01-30T03:20:36;96633.50;;;-3.21;92.51
706;BME280;21234;48.690;9.016;2023-01-30T03:23:03;96626.81;;;-3.08;91.92
706;BME280;21234;48.690;9.016;2023-01-30T03:25:30;96622.63;;;-3.10;91.70
706;BME280;21234;48.690;9.016;2023-01-30T03:27:58;96597.66;;;-3.17;91.91
706;BME280;21234;48.690;9.016;2023-01-30T03:30:25;96576.84;;;-3.22;91.58
706;BME280;21234;48.690;9.016;2023-01-30T03:32:52;96563.69;;;-3.31;92.26
706;BME280;21234;48.690;9.016;2023-01-30T03:35:20;96547.84;;;-3.41;92.89
706;BME280;21234;48.690;9.016;2023-01-30T03:37:47;96542.34;;;-3.40;93.64
706;BME280;21234;48.690;9.016;2023-01-30T03:40:15;96554.72;;;-3.30;93.39
706;BME280;21234;48.690;9.016;2023-01-30T03:42:42;96556.91;;;-3.26;92.97
706;BME280;21234;48.690;9.016;2023-01-30T03:45:10;96590.91;;;-3.03;92.77
706;BME280;21234;48.690;9.016;2023-01-30T03:47:37;96584.28;;;-2.99;92.76
706;BME280;21234;48.690;9.016;2023-01-30T03:50:04;96600.63;;;-2.94;91.95
706;BME280;21234;48.690;9.016;2023-01-30T03:52:34;96608.31;;;-2.83;91.51
706;BME280;21234;48.690;9.016;2023-01-30T03:55:01;96616.28;;;-2.83;90.96
706;BME280;21234;48.690;9.016;2023-01-30T03:57:29;96620.88;;;-2.67;91.06
706;BME280;21234;48.690;9.016;2023-01-30T03:59:55;96612.53;;;-2.73;90.34
706;BME280;21234;48.690;9.016;2023-01-30T04:02:22;96599.72;;;-2.69;90.04
706;BME280;21234;48.690;9.016;2023-01-30T04:04:50;96592.91;;;-2.72;89.81
706;BME280;21234;48.690;9.016;2023-01-30T04:07:17;96593.88;;;-2.73;90.12
706;BME280;21234;48.690;9.016;2023-01-30T04:09:45;96600.56;;;-2.68;89.97
706;BME280;21234;48.690;9.016;2023-01-30T04:12:12;96595.59;;;-2.63;89.82
706;BME280;21234;48.690;9.016;2023-01-30T04:14:39;96593.09;;;-2.65;89.67
706;BME280;21234;48.690;9.016;2023-01-30T04:17:06;96588.44;;;-2.63;89.95
706;BME280;21234;48.690;9.016;2023-01-30T04:19:32;96592.94;;;-2.55;89.91
706;BME280;21234;48.690;9.016;2023-01-30T04:21:59;96593.63;;;-2.61;89.61
706;BME280;21234;48.690;9.016;2023-01-30T04:24:26;96596.63;;;-2.48;89.73
706;BME280;21234;48.690;9.016;2023-01-30T04:26:54;96599.81;;;-2.45;89.03
706;BME280;21234;48.690;9.016;2023-01-30T04:29:20;96600.97;;;-2.47;88.51
706;BME280;21234;48.690;9.016;2023-01-30T04:31:47;96602.44;;;-2.53;88.19
706;BME280;21234;48.690;9.016;2023-01-30T04:34:14;96592.16;;;-2.48;88.17
706;BME280;21234;48.690;9.016;2023-01-30T04:36:41;96591.78;;;-2.53;88.47
706;BME280;21234;48.690;9.016;2023-01-30T04:39:07;96596.28;;;-2.61;88.73
706;BME280;21234;48.690;9.016;2023-01-30T04:41:34;96589.28;;;-2.54;88.99
706;BME280;21234;48.690;9.016;2023-01-30T04:44:02;96597.94;;;-2.52;88.67
706;BME280;21234;48.690;9.016;2023-01-30T04:46:29;96596.00;;;-2.42;88.52
706;BME280;21234;48.690;9.016;2023-01-30T04:48:56;96604.97;;;-2.43;88.20
706;BME280;21234;48.690;9.016;2023-01-30T04:51:22;96594.34;;;-2.27;88.30
706;BME280;21234;48.690;9.016;2023-01-30T04:53:49;96595.03;;;-2.25;87.71
706;BME280;21234;48.690;9.016;2023-01-30T04:56:16;96592.72;;;-2.20;87.48
706;BME280;21234;48.690;9.016;2023-01-30T04:58:43;96604.03;;;-2.18;87.02
706;BME280;21234;48.690;9.016;2023-01-30T05:01:18;96582.72;;;-2.18;87.11
706;BME280;21234;48.690;9.016;2023-01-30T05:03:48;96587.06;;;-2.17;86.23
706;BME280;21234;48.690;9.016;2023-01-30T05:06:15;96582.25;;;-2.13;86.17
706;BME280;21234;48.690;9.016;2023-01-30T05:08:42;96579.75;;;-2.15;85.96
706;BME280;21234;48.690;9.016;2023-01-30T05:11:08;96572.25;;;-2.19;86.05
706;BME280;21234;48.690;9.016;2023-01-30T05:13:35;96575.75;;;-2.11;86.13
706;BME280;21234;48.690;9.016;2023-01-30T05:16:02;96556.94;;;-2.09;85.72
706;BME280;21234;48.690;9.016;2023-01-30T05:18:30;96548.13;;;-2.10;85.63
706;BME280;21234;48.690;9.016;2023-01-30T05:21:04;96557.59;;;-2.15;85.32
706;BME280;21234;48.690;9.016;2023-01-30T05:23:31;96542.13;;;-2.12;85.14
706;BME280;21234;48.690;9.016;2023-01-30T05:25:58;96537.13;;;-2.15;85.16
706;BME280;21234;48.690;9.016;2023-01-30T05:28:25;96528.66;;;-2.10;85.56
706;BME280;21234;48.690;9.016;2023-01-30T05:30:51;96538.28;;;-2.17;85.84
706;BME280;21234;48.690;9.016;2023-01-30T05:33:18;96522.66;;;-2.12;86.19
706;BME280;21234;48.690;9.016;2023-01-30T05:35:47;96527.31;;;-2.14;85.93
706;BME280;21234;48.690;9.016;2023-01-30T05:38:14;96527.31;;;-2.06;85.92
706;BME280;21234;48.690;9.016;2023-01-30T05:40:41;96519.81;;;-2.11;85.59
706;BME280;21234;48.690;9.016;2023-01-30T05:43:08;96532.16;;;-2.10;86.17
706;BME280;21234;48.690;9.016;2023-01-30T05:45:35;96522.00;;;-2.06;86.05
706;BME280;21234;48.690;9.016;2023-01-30T05:48:01;96512.34;;;-2.07;86.11
706;BME280;21234;48.690;9.016;2023-01-30T05:50:29;96509.84;;;-2.09;85.76
706;BME280;21234;48.690;9.016;2023-01-30T05:52:57;96510.50;;;-2.15;86.04
706;BME280;21234;48.690;9.016;2023-01-30T05:55:24;96505.19;;;-2.07;85.86
706;BME280;21234;48.690;9.016;2023-01-30T05:57:51;96518.47;;;-2.15;86.28
706;BME280;21234;48.690;9.016;2023-01-30T06:00:19;96518.47;;;-2.23;86.74
706;BME280;21234;48.690;9.016;2023-01-30T06:02:46;96523.47;;;-2.28;87.05
706;BME280;21234;48.690;9.016;2023-01-30T06:05:12;96527.97;;;-2.28;87.04
706;BME280;21234;48.690;9.016;2023-01-30T06:07:39;96522.66;;;-2.28;87.05
706;BME280;21234;48.690;9.016;2023-01-30T06:10:08;96510.34;;;-2.29;86.68
706;BME280;21234;48.690;9.016;2023-01-30T06:12:35;96512.16;;;-2.30;86.73
706;BME280;21234;48.690;9.016;2023-01-30T06:15:02;96518.13;;;-2.36;87.03
706;BME280;21234;48.690;9.016;2023-01-30T06:17:29;96516.13;;;-2.42;86.87
706;BME280;21234;48.690;9.016;2023-01-30T06:19:55;96520.97;;;-2.29;87.26
706;BME280;21234;48.690;9.016;2023-01-30T06:22:22;96505.81;;;-2.37;87.34
706;BME280;21234;48.690;9.016;2023-01-30T06:24:49;96504.16;;;-2.38;87.37
706;BME280;21234;48.690;9.016;2023-01-30T06:27:17;96502.16;;;-2.36;87.08
706;BME280;21234;48.690;9.016;2023-01-30T06:29:44;96506.16;;;-2.40;87.77
706;BME280;21234;48.690;9.016;2023-01-30T06:32:10;96507.81;;;-2.39;87.74
706;BME280;21234;48.690;9.016;2023-01-30T06:34:37;96513.66;;;-2.35;87.82
706;BME280;21234;48.690;9.016;2023-01-30T06:37:04;96511.31;;;-2.30;88.00
706;BME280;21234;48.690;9.016;2023-01-30T06:39:30;96494.50;;;-2.31;87.63
706;BME280;21234;48.690;9.016;2023-01-30T06:41:57;96496.50;;;-2.25;87.81
706;BME280;21234;48.690;9.016;2023-01-30T06:44:25;96493.84;;;-2.25;87.66
706;BME280;21234;48.690;9.016;2023-01-30T06:46:52;96496.31;;;-2.23;87.58
706;BME280;21234;48.690;9.016;2023-01-30T06:49:18;96495.00;;;-2.19;87.33
706;BME280;21234;48.690;9.016;2023-01-30T06:51:45;96504.00;;;-2.20;87.37
706;BME280;21234;48.690;9.016;2023-01-30T06:54:12;96498.00;;;-2.22;87.38
706;BME280;21234;48.690;9.016;2023-01-30T06:56:38;96490.50;;;-2.19;87.44
706;BME280;21234;48.690;9.016;2023-01-30T06:59:05;96494.00;;;-2.18;87.46
706;BME280;21234;48.690;9.016;2023-01-30T07:01:33;96480.03;;;-2.20;87.61
706;BME280;21234;48.690;9.016;2023-01-30T07:04:00;96479.34;;;-2.22;87.90
706;BME280;21234;48.690;9.016;2023-01-30T07:06:27;96490.50;;;-2.27;88.17
706;BME280;21234;48.690;9.016;2023-01-30T07:08:53;96487.19;;;-2.21;88.28
706;BME280;21234;48.690;9.016;2023-01-30T07:11:22;96489.19;;;-2.15;88.44
706;BME280;21234;48.690;9.016;2023-01-30T07:13:49;96489.69;;;-2.11;88.76
706;BME280;21234;48.690;9.016;2023-01-30T07:16:16;96489.03;;;-2.05;88.88
706;BME280;21234;48.690;9.016;2023-01-30T07:18:44;96502.34;;;-1.97;88.32
706;BME280;21234;48.690;9.016;2023-01-30T07:21:11;96506.50;;;-1.94;87.95
706;BME280;21234;48.690;9.016;2023-01-30T07:23:38;96516.16;;;-1.93;88.08
706;BME280;21234;48.690;9.016;2023-01-30T07:26:05;96525.66;;;-1.91;87.74
706;BME280;21234;48.690;9.016;2023-01-30T07:28:31;96535.47;;;-1.91;87.66
706;BME280;21234;48.690;9.016;2023-01-30T07:30:58;96527.31;;;-1.90;88.10
706;BME280;21234;48.690;9.016;2023-01-30T07:33:25;96528.97;;;-1.81;88.19
706;BME280;21234;48.690;9.016;2023-01-30T07:35:54;96543.13;;;-1.80;87.28
706;BME280;21234;48.690;9.016;2023-01-30T07:38:20;96541.81;;;-1.76;87.34
706;BME280;21234;48.690;9.016;2023-01-30T07:40:47;96530.47;;;-1.78;87.41
706;BME280;21234;48.690;9.016;2023-01-30T07:43:14;96513.31;;;-1.76;87.33
706;BME280;21234;48.690;9.016;2023-01-30T07:45:42;96525.97;;;-1.78;87.27
706;BME280;21234;48.690;9.016;2023-01-30T07:48:11;96515.31;;;-1.86;86.77
706;BME280;21234;48.690;9.016;2023-01-30T07:50:38;96533.47;;;-1.89;86.50
706;BME280;21234;48.690;9.016;2023-01-30T07:53:09;96531.16;;;-1.84;86.65
706;BME280;21234;48.690;9.016;2023-01-30T07:55:36;96540.47;;;-1.80;86.20
706;BME280;21234;48.690;9.016;2023-01-30T07:58:03;96539.47;;;-1.79;86.79
706;BME280;21234;48.690;9.016;2023-01-30T08:00:30;96534.16;;;-1.79;86.75
706;BME280;21234;48.690;9.016;2023-01-30T08:02:57;96531.16;;;-1.76;86.81
706;BME280;21234;48.690;9.016;2023-01-30T08:05:24;96514.66;;;-1.72;86.70
706;BME280;21234;48.690;9.016;2023-01-30T08:07:51;96506.81;;;-1.65;86.73
706;BME280;21234;48.690;9.016;2023-01-30T08:10:21;96507.66;;;-1.64;86.38
706;BME280;21234;48.690;9.016;2023-01-30T08:12:49;96520.13;;;-1.49;85.30
706;BME280;21234;48.690;9.016;2023-01-30T08:15:15;96521.63;;;-1.54;85.95
706;BME280;21234;48.690;9.016;2023-01-30T08:17:42;96533.28;;;-1.55;86.14
706;BME280;21234;48.690;9.016;2023-01-30T08:20:10;96555.13;;;-1.52;86.13
706;BME280;21234;48.690;9.016;2023-01-30T08:22:40;96566.78;;;-1.45;87.16
706;BME280;21234;48.690;9.016;2023-01-30T08:25:07;96557.44;;;-1.49;87.43
706;BME280;21234;48.690;9.016;2023-01-30T08:27:35;96548.09;;;-1.37;87.37
706;BME280;21234;48.690;9.016;2023-01-30T08:30:02;96527.88;;;-1.23;87.28
706;BME280;21234;48.690;9.016;2023-01-30T08:32:29;96536.88;;;-1.08;87.39
706;BME280;21234;48.690;9.016;2023-01-30T08:34:56;96531.13;;;-0.96;87.08
706;BME280;21234;48.690;9.016;2023-01-30T08:37:22;96524.28;;;-0.91;88.22
706;BME280;21234;48.690;9.016;2023-01-30T08:39:49;96517.94;;;-0.90;88.40
706;BME280;21234;48.690;9.016;2023-01-30T08:42:16;96511.44;;;-0.87;88.87
706;BME280;21234;48.690;9.016;2023-01-30T08:44:44;96520.41;;;-0.80;88.67
706;BME280;21234;48.690;9.016;2023-01-30T08:47:10;96514.75;;;-0.85;88.58
706;BME280;21234;48.690;9.016;2023-01-30T08:49:37;96520.56;;;-0.74;88.48
706;BME280;21234;48.690;9.016;2023-01-30T08:52:04;96522.75;;;-0.77;88.37
706;BME280;21234;48.690;9.016;2023-01-30T08:54:30;96502.53;;;-0.72;88.69
706;BME280;21234;48.690;9.016;2023-01-30T08:56:57;96491.22;;;-0.51;88.36
706;BME280;21234;48.690;9.016;2023-01-30T08:59:24;96507.72;;;-0.47;88.50
706;BME280;21234;48.690;9.016;2023-01-30T09:01:52;96502.06;;;-0.52;88.46
706;BME280;21234;48.690;9.016;2023-01-30T09:04:18;96503.41;;;-0.48;88.54
706;BME280;21234;48.690;9.016;2023-01-30T09:06:45;96491.97;;;-0.34;88.32
706;BME280;21234;48.690;9.016;2023-01-30T09:09:12;96479.88;;;-0.30;87.65
706;BME280;21234;48.690;9.016;2023-01-30T09:11:38;96466.47;;;-0.22;87.00
706;BME280;21234;48.690;9.016;2023-01-30T09:14:05;96482.50;;;-0.22;86.78
706;BME280;21234;48.690;9.016;2023-01-30T09:16:32;96475.09;;;-0.35;86.83
706;BME280;21234;48.690;9.016;2023-01-30T09:19:00;96487.19;;;-0.24;87.04
706;BME280;21234;48.690;9.016;2023-01-30T09:21:27;96474.22;;;-0.04;86.57
706;BME280;21234;48.690;9.016;2023-01-30T09:23:54;96477.97;;;0.02;85.60
706;BME280;21234;48.690;9.016;2023-01-30T09:26:21;96494.44;;;0.13;84.98
706;BME280;21234;48.690;9.016;2023-01-30T09:28:48;96495.88;;;0.39;84.72
706;BME280;21234;48.690;9.016;2023-01-30T09:31:14;96489.09;;;0.65;82.99
706;BME280;21234;48.690;9.016;2023-01-30T09:33:41;96498.41;;;0.70;82.49
706;BME280;21234;48.690;9.016;2023-01-30T09:36:09;96491.28;;;0.47;82.01
706;BME280;21234;48.690;9.016;2023-01-30T09:38:36;96495.03;;;0.38;82.87
706;BME280;21234;48.690;9.016;2023-01-30T09:41:18;96498.47;;;0.32;84.21
706;BME280;21234;48.690;9.016;2023-01-30T09:44:13;96505.97;;;0.14;84.52
706;BME280;21234;48.690;9.016;2023-01-30T09:46:47;96504.41;;;0.19;85.01
706;BME280;21234;48.690;9.016;2023-01-30T09:49:24;96498.13;;;0.12;84.51
706;BME280;21234;48.690;9.016;2023-01-30T09:52:01;96504.66;;;0.10;84.37
706;BME280;21234;48.690;9.016;2023-01-30T09:54:35;96494.44;;;0.13;85.00
706;BME280;21234;48.690;9.016;2023-01-30T09:57:11;96476.84;;;0.19;84.42
706;BME280;21234;48.690;9.016;2023-01-30T09:59:48;96471.50;;;0.19;84.55
706;BME280;21234;48.690;9.016;2023-01-30T10:02:28;96470.31;;;0.21;84.53
706;BME280;21234;48.690;9.016;2023-01-30T10:04:57;96451.88;;;0.26;85.39
706;BME280;21234;48.690;9.016;2023-01-30T10:07:34;96442.56;;;0.37;84.73
706;BME280;21234;48.690;9.016;2023-01-30T10:10:09;96443.56;;;0.36;84.99
706;BME280;21234;48.690;9.016;2023-01-30T10:12:46;96441.47;;;0.46;85.79
706;BME280;21234;48.690;9.016;2023-01-30T10:15:27;96435.03;;;0.55;85.81
706;BME280;21234;48.690;9.016;2023-01-30T10:18:07;96433.81;;;0.73;86.33
706;BME280;21234;48.690;9.016;2023-01-30T10:20:45;96427.47;;;0.88;87.38
706;BME280;21234;48.690;9.016;2023-01-30T10:23:38;96417.03;;;0.93;87.03
706;BME280;21234;48.690;9.016;2023-01-30T10:26:10;96412.00;;;1.05;87.27
706;BME280;21234;48.690;9.016;2023-01-30T10:28:42;96406.75;;;1.12;87.19
706;BME280;21234;48.690;9.016;2023-01-30T10:31:14;96412.00;;;1.20;87.71
706;BME280;21234;48.690;9.016;2023-01-30T10:33:55;96404.59;;;1.22;87.76
706;BME280;21234;48.690;9.016;2023-01-30T10:36:28;96407.91;;;1.24;88.40
706;BME280;21234;48.690;9.016;2023-01-30T10:39:02;96402.56;;;1.24;88.57
706;BME280;21234;48.690;9.016;2023-01-30T10:41:37;96394.19;;;1.33;88.74
706;BME280;21234;48.690;9.016;2023-01-30T10:44:09;96394.56;;;1.30;88.57
706;BME280;21234;48.690;9.016;2023-01-30T10:46:57;96398.50;;;1.28;89.54
706;BME280;21234;48.690;9.016;2023-01-30T10:49:33;96387.69;;;1.21;89.64
706;BME280;21234;48.690;9.016;2023-01-30T10:52:11;96393.50;;;1.25;90.63
706;BME280;21234;48.690;9.016;2023-01-30T10:54:52;96392.50;;;1.26;90.87
706;BME280;21234;48.690;9.016;2023-01-30T10:57:27;96396.66;;;1.28;91.50
706;BME280;21234;48.690;9.016;2023-01-30T10:59:59;96389.31;;;1.37;90.95
706;BME280;21234;48.690;9.016;2023-01-30T11:02:35;96398.16;;;1.38;90.95
706;BME280;21234;48.690;9.016;2023-01-30T11:05:12;96393.25;;;1.20;91.06
706;BME280;21234;48.690;9.016;2023-01-30T11:07:41;96392.25;;;1.06;91.49
706;BME280;21234;48.690;9.016;2023-01-30T11:10:15;96392.28;;;0.91;92.65
706;BME280;21234;48.690;9.016;2023-01-30T11:12:42;96395.44;;;0.95;92.87
706;BME280;21234;48.690;9.016;2023-01-30T11:15:09;96389.81;;;0.90;93.12
706;BME280;21234;48.690;9.016;2023-01-30T11:17:38;96395.63;;;0.79;93.53
706;BME280;21234;48.690;9.016;2023-01-30T11:20:11;96398.31;;;0.79;93.50
706;BME280;21234;48.690;9.016;2023-01-30T11:22:45;96390.47;;;0.77;93.96
706;BME280;21234;48.690;9.016;2023-01-30T11:25:16;96383.63;;;0.75;94.07
706;BME280;21234;48.690;9.016;2023-01-30T11:27:51;96386.50;;;0.73;94.13
706;BME280;21234;48.690;9.016;2023-01-30T11:30:20;96400.88;;;0.72;94.51
706;BME280;21234;48.690;9.016;2023-01-30T11:32:48;96398.31;;;0.79;94.83
706;BME280;21234;48.690;9.016;2023-01-30T11:35:23;96395.72;;;0.71;95.04
706;BME280;21234;48.690;9.016;2023-01-30T11:37:51;96376.25;;;0.77;95.00
706;BME280;21234;48.690;9.016;2023-01-30T11:40:25;96376.97;;;0.71;95.31
706;BME280;21234;48.690;9.016;2023-01-30T11:43:01;96373.28;;;0.72;94.69
706;BME280;21234;48.690;9.016;2023-01-30T11:45:30;96389.16;;;0.73;94.83
706;BME280;21234;48.690;9.016;2023-01-30T11:48:01;96388.34;;;0.73;94.45
706;BME280;21234;48.690;9.016;2023-01-30T11:50:32;96386.84;;;0.70;94.98
706;BME280;21234;48.690;9.016;2023-01-30T11:53:02;96395.44;;;0.65;95.01
706;BME280;21234;48.690;9.016;2023-01-30T11:55:32;96404.75;;;0.70;94.89
706;BME280;21234;48.690;9.016;2023-01-30T11:58:01;96403.09;;;0.68;95.69
706;BME280;21234;48.690;9.016;2023-01-30T12:00:37;96404.28;;;0.66;97.72
706;BME280;21234;48.690;9.016;2023-01-30T12:03:09;96387.63;;;0.64;98.30
706;BME280;21234;48.690;9.016;2023-01-30T12:05:37;96384.84;;;0.57;98.42
706;BME280;21234;48.690;9.016;2023-01-30T12:08:12;96390.84;;;0.59;99.81
706;BME280;21234;48.690;9.016;2023-01-30T12:10:41;96397.59;;;0.55;100.00
706;BME280;21234;48.690;9.016;2023-01-30T12:13:14;96391.94;;;0.50;100.00
706;BME280;21234;48.690;9.016;2023-01-30T12:15:44;96389.28;;;0.50;100.00
706;BME280;21234;48.690;9.016;2023-01-30T12:18:17;96379.50;;;0.43;100.00
706;BME280;21234;48.690;9.016;2023-01-30T12:20:50;96374.44;;;0.48;100.00
706;BME280;21234;48.690;9.016;2023-01-30T12:23:26;96375.06;;;0.50;100.00
706;BME280;21234;48.690;9.016;2023-01-30T12:26:03;96365.75;;;0.46;100.00
706;BME280;21234;48.690;9.016;2023-01-30T12:28:36;96360.13;;;0.41;100.00
706;BME280;21234;48.690;9.016;2023-01-30T12:31:10;96364.66;;;0.40;100.00
706;BME280;21234;48.690;9.016;2023-01-30T12:33:37;96356.34;;;0.35;100.00
706;BME280;21234;48.690;9.016;2023-01-30T12:36:12;96365.00;;;0.37;100.00
706;BME280;21234;48.690;9.016;2023-01-30T12:38:56;96367.41;;;0.47;100.00
706;BME280;21234;48.690;9.016;2023-01-30T12:41:45;96355.44;;;0.57;100.00
706;BME280;21234;48.690;9.016;2023-01-30T12:44:37;96367.97;;;0.57;100.00
706;BME280;21234;48.690;9.016;2023-01-30T12:47:21;96363.28;;;0.59;100.00
706;BME280;21234;48.690;9.016;2023-01-30T12:50:16;96361.44;;;0.59;100.00
706;BME280;21234;48.690;9.016;2023-01-30T12:52:56;96367.25;;;0.63;100.00
706;BME280;21234;48.690;9.016;2023-01-30T12:55:35;96378.59;;;0.65;100.00
706;BME280;21234;48.690;9.016;2023-01-30T12:58:13;96396.47;;;0.64;100.00
706;BME280;21234;48.690;9.016;2023-01-30T13:00:53;96401.75;;;0.58;100.00
706;BME280;21234;48.690;9.016;2023-01-30T13:03:32;96411.25;;;0.60;100.00
706;BME280;21234;48.690;9.016;2023-01-30T13:06:09;96414.38;;;0.64;100.00
706;BME280;21234;48.690;9.016;2023-01-30T13:08:49;96421.19;;;0.66;100.00
706;BME280;21234;48.690;9.016;2023-01-30T13:11:40;96419.16;;;0.68;100.00
706;BME280;21234;48.690;9.016;2023-01-30T13:14:20;96415.41;;;0.63;100.00
706;BME280;21234;48.690;9.016;2023-01-30T13:17:00;96413.44;;;0.72;100.00
706;BME280;21234;48.690;9.016;2023-01-30T13:19:34;96414.81;;;0.67;100.00
706;BME280;21234;48.690;9.016;2023-01-30T13:22:08;96413.91;;;0.75;100.00
706;BME280;21234;48.690;9.016;2023-01-30T13:24:45;96412.97;;;0.68;100.00
706;BME280;21234;48.690;9.016;2023-01-30T13:27:16;96420.44;;;0.73;100.00
706;BME280;21234;48.690;9.016;2023-01-30T13:29:46;96412.13;;;0.67;100.00
706;BME280;21234;48.690;9.016;2023-01-30T13:32:16;96408.09;;;0.72;100.00
706;BME280;21234;48.690;9.016;2023-01-30T13:34:46;96429.50;;;0.72;100.00
706;BME280;21234;48.690;9.016;2023-01-30T13:37:15;96427.28;;;0.75;100.00
706;BME280;21234;48.690;9.016;2023-01-30T13:39:46;96427.63;;;0.72;100.00
706;BME280;21234;48.690;9.016;2023-01-30T13:42:24;96432.16;;;0.72;100.00
706;BME280;21234;48.690;9.016;2023-01-30T13:44:54;96432.72;;;0.67;100.00
706;BME280;21234;48.690;9.016;2023-01-30T13:47:32;96431.50;;;0.70;100.00